Time;durP1;ratioP1;P1;durP2;ratioP2;P2;SDS_P1;SDS_P2;PMS_P1;PMS_P2;Temp;Humidity;BMP_temperature;BMP_pressure;BME280_temperature;BME280_humidity;BME280_pressure;Samples;Min_cycle;Max_cycle;Signal;HPM_P1;HPM_P2
2022/04/09 00:02:26;;;;;;;5.37;3.17;;;;;;;13.20;56.74;96225.66;6219791;23;20521;-95
2022/04/09 00:04:55;;;;;;;4.97;3.27;;;;;;;12.90;57.04;96205.16;6219304;23;20574;-94
2022/04/09 00:07:22;;;;;;;5.57;3.20;;;;;;;12.34;57.70;96194.31;6222516;23;20193;-92
2022/04/09 00:09:51;;;;;;;5.70;3.27;;;;;;;12.56;58.46;96223.94;6247777;23;20172;-96
2022/04/09 00:12:21;;;;;;;6.03;3.20;;;;;;;12.71;57.97;96212.53;6219802;23;20179;-94
2022/04/09 00:14:51;;;;;;;5.50;3.07;;;;;;;12.82;56.92;96175.41;6244924;23;20159;-96
2022/04/09 00:17:18;;;;;;;5.13;2.80;;;;;;;13.06;56.45;96182.38;6218444;23;20163;-93
2022/04/09 00:19:45;;;;;;;4.83;3.10;;;;;;;12.88;56.74;96219.19;6218521;23;20215;-96
2022/04/09 00:22:15;;;;;;;4.83;3.60;;;;;;;12.44;58.29;96214.38;6244487;23;20222;-96
2022/04/09 00:24:43;;;;;;;4.23;3.23;;;;;;;11.86;58.58;96129.13;6218999;23;20676;-96
2022/04/09 00:27:13;;;;;;;5.07;3.47;;;;;;;12.59;57.85;96212.53;6222913;23;20188;-96
2022/04/09 00:29:42;;;;;;;6.73;3.43;;;;;;;12.75;57.80;96224.41;6246187;23;20168;-95
2022/04/09 00:32:10;;;;;;;7.67;3.50;;;;;;;12.92;57.40;96220.66;6219985;23;20204;-90
2022/04/09 00:34:38;;;;;;;4.67;3.30;;;;;;;12.77;56.78;96227.72;6193685;23;20176;-96
2022/04/09 00:37:05;;;;;;;6.37;4.17;;;;;;;12.03;58.42;96209.31;6218189;23;20166;-95
2022/04/09 00:39:32;;;;;;;4.73;3.10;;;;;;;11.98;59.00;96189.75;6197676;23;20162;-90
2022/04/09 00:42:01;;;;;;;4.20;3.37;;;;;;;12.08;59.19;96190.81;6204699;23;20199;-96
2022/04/09 00:44:28;;;;;;;4.30;3.20;;;;;;;12.50;58.09;96232.16;6206461;23;20164;-90
2022/04/09 00:46:56;;;;;;;3.67;2.90;;;;;;;12.39;57.53;96233.78;6203453;23;20206;-96
2022/04/09 00:49:24;;;;;;;6.03;3.00;;;;;;;11.97;57.99;96188.91;6265274;23;20168;-93
2022/04/09 00:51:56;;;;;;;4.03;3.03;;;;;;;12.13;57.92;96209.53;6234999;23;20210;-92
2022/04/09 00:54:29;;;;;;;3.40;3.00;;;;;;;12.19;57.59;96215.16;6204050;23;20234;-96
2022/04/09 00:57:02;;;;;;;5.13;3.43;;;;;;;12.12;58.35;96245.03;6218784;23;20169;-96
2022/04/09 00:59:30;;;;;;;4.57;3.50;;;;;;;11.91;58.62;96204.06;6248103;23;20173;-96
2022/04/09 01:01:57;;;;;;;4.93;3.50;;;;;;;11.63;59.77;96228.28;6228997;23;20247;-96
2022/04/09 01:04:27;;;;;;;3.90;3.03;;;;;;;10.58;60.81;96119.97;6225090;23;20173;-96
2022/04/09 01:06:57;;;;;;;4.10;3.37;;;;;;;10.71;61.68;96174.44;6254296;23;20174;-89
2022/04/09 01:09:25;;;;;;;3.83;3.43;;;;;;;10.88;62.09;96209.69;6268729;23;20191;-90
2022/04/09 01:11:56;;;;;;;4.70;3.70;;;;;;;10.71;62.46;96197.75;6235877;23;20190;-88
2022/04/09 01:14:24;;;;;;;4.57;3.40;;;;;;;10.70;62.43;96188.28;6231836;23;20237;-93
2022/04/09 01:16:51;;;;;;;4.70;3.80;;;;;;;10.65;63.06;96211.06;6244694;22;20184;-94
2022/04/09 01:19:19;;;;;;;5.37;3.60;;;;;;;11.03;62.42;96219.09;6185744;23;20305;-96
2022/04/09 01:21:48;;;;;;;6.43;3.13;;;;;;;11.27;60.97;96218.44;6265071;23;20191;-96
2022/04/09 01:24:16;;;;;;;5.80;3.00;;;;;;;11.46;60.49;96218.97;6267485;22;20227;-96
2022/04/09 01:26:49;;;;;;;6.77;3.60;;;;;;;11.18;60.67;96164.59;6214096;23;20195;-96
2022/04/09 01:29:26;;;;;;;4.57;3.77;;;;;;;10.97;60.81;96162.47;6216206;23;20219;-94
2022/04/09 01:31:53;;;;;;;5.07;4.30;;;;;;;11.26;60.76;96221.97;6224552;23;20197;-95
2022/04/09 01:34:22;;;;;;;6.33;4.07;;;;;;;11.26;60.83;96215.94;6244623;23;20172;-91
2022/04/09 01:36:51;;;;;;;6.40;3.90;;;;;;;11.39;60.47;96224.66;6245102;23;20170;-94
2022/04/09 01:39:18;;;;;;;5.90;5.03;;;;;;;11.38;60.53;96186.66;6225657;23;20166;-96
2022/04/09 01:41:45;;;;;;;6.37;4.30;;;;;;;11.28;60.38;96188.19;6211509;22;20277;-93
2022/04/09 01:44:14;;;;;;;6.53;3.97;;;;;;;11.08;61.44;96183.41;6219785;22;20178;-87
2022/04/09 01:46:44;;;;;;;4.97;3.83;;;;;;;10.96;62.20;96192.75;6220462;23;20190;-93
2022/04/09 01:49:17;;;;;;;5.50;3.93;;;;;;;10.97;61.64;96142.59;6245230;23;20163;-89
2022/04/09 01:51:49;;;;;;;5.63;4.20;;;;;;;11.16;61.32;96173.38;6244254;22;20198;-96
2022/04/09 01:54:20;;;;;;;6.20;5.10;;;;;;;11.27;61.42;96189.13;6203801;23;20164;-91
2022/04/09 01:56:48;;;;;;;6.93;4.70;;;;;;;11.36;61.45;96186.78;6167895;23;20171;-95
2022/04/09 01:59:20;;;;;;;10.10;5.40;;;;;;;11.44;61.68;96186.28;6221185;23;20162;-95
2022/04/09 02:01:49;;;;;;;6.10;4.63;;;;;;;11.55;60.44;96185.63;6193023;23;20552;-94
2022/04/09 02:04:18;;;;;;;8.83;4.83;;;;;;;11.68;60.74;96183.94;6217356;23;20525;-92
2022/04/09 02:06:46;;;;;;;5.67;4.43;;;;;;;11.62;60.46;96186.91;6168802;23;20169;-94
2022/04/09 02:09:13;;;;;;;5.93;4.47;;;;;;;11.55;61.12;96199.41;6242465;23;20471;-91
2022/04/09 02:11:43;;;;;;;5.20;4.67;;;;;;;11.42;60.98;96177.78;6215322;23;20252;-93
2022/04/09 02:14:11;;;;;;;7.43;4.40;;;;;;;11.65;60.29;96204.84;6189515;23;20188;-90
2022/04/09 02:16:41;;;;;;;9.40;5.17;;;;;;;11.38;60.51;96210.84;6221481;23;20171;-90
2022/04/09 02:19:10;;;;;;;7.90;4.97;;;;;;;11.43;61.07;96201.03;6190263;23;20236;-92
2022/04/09 02:21:38;;;;;;;6.07;4.87;;;;;;;11.54;60.82;96196.94;6194382;23;20196;-91
2022/04/09 02:24:08;;;;;;;7.13;4.60;;;;;;;11.32;60.42;96169.75;6217004;23;20172;-92
2022/04/09 02:26:36;;;;;;;7.37;4.43;;;;;;;11.05;60.85;96155.06;6191797;23;20163;-92
2022/04/09 02:29:05;;;;;;;4.80;4.00;;;;;;;10.79;62.12;96199.88;6216793;23;20694;-94
2022/04/09 02:31:35;;;;;;;8.07;4.57;;;;;;;10.17;63.68;96173.34;6214418;23;20198;-93
2022/04/09 02:34:04;;;;;;;5.47;3.70;;;;;;;10.22;63.53;96179.06;6218312;23;20231;-95
2022/04/09 02:36:36;;;;;;;4.13;3.37;;;;;;;10.07;63.58;96177.34;6215051;23;20167;-92
2022/04/09 02:39:04;;;;;;;6.23;4.03;;;;;;;9.94;64.20;96188.47;6191396;23;20256;-94
2022/04/09 02:41:32;;;;;;;5.47;3.93;;;;;;;9.77;65.28;96195.44;6215060;23;20822;-94
2022/04/09 02:44:00;;;;;;;5.17;3.87;;;;;;;9.46;66.76;96179.16;6215226;23;20261;-93
2022/04/09 02:46:28;;;;;;;7.57;4.80;;;;;;;9.61;65.73;96150.69;6215372;23;20213;-87
2022/04/09 02:48:58;;;;;;;9.00;5.30;;;;;;;9.75;66.89;96186.09;6215540;23;20162;-87
2022/04/09 02:51:25;;;;;;;7.03;4.90;;;;;;;9.91;66.45;96191.25;6261071;22;20276;-94
2022/04/09 02:53:55;;;;;;;7.20;4.43;;;;;;;9.84;65.80;96147.63;6216885;23;20644;-95
2022/04/09 02:56:28;;;;;;;6.93;4.33;;;;;;;9.73;66.08;96142.22;6249859;23;20165;-88
2022/04/09 02:58:56;;;;;;;8.20;5.23;;;;;;;10.04;65.57;96169.75;6219257;23;20192;-93
2022/04/09 03:01:27;;;;;;;6.70;3.83;;;;;;;10.27;64.74;96155.53;6219846;22;20230;-96
2022/04/09 03:03:55;;;;;;;5.90;4.20;;;;;;;10.33;63.70;96112.00;6244786;23;20180;-92
2022/04/09 03:06:22;;;;;;;5.73;4.77;;;;;;;10.84;62.54;96166.78;6217706;23;20172;-94
2022/04/09 03:08:49;;;;;;;8.20;4.90;;;;;;;10.96;62.69;96184.16;6241096;23;20173;-87
2022/04/09 03:11:19;;;;;;;4.90;4.17;;;;;;;10.81;62.43;96144.47;6229816;23;20197;-85
2022/04/09 03:13:48;;;;;;;8.67;6.17;;;;;;;10.73;62.84;96159.66;6257106;23;20188;-88
2022/04/09 03:16:16;;;;;;;7.07;5.07;;;;;;;10.87;62.71;96157.03;6255713;23;20170;-86
2022/04/09 03:18:44;;;;;;;9.13;5.50;;;;;;;11.00;61.83;96154.53;6233326;23;20197;-88
2022/04/09 03:21:15;;;;;;;9.10;4.80;;;;;;;10.94;62.04;96152.31;6241582;23;20180;-93
2022/04/09 03:23:42;;;;;;;8.27;4.40;;;;;;;10.59;62.49;96121.63;6214424;23;20631;-93
2022/04/09 03:26:11;;;;;;;5.97;4.63;;;;;;;10.81;62.77;96161.75;6232962;23;20166;-90
2022/04/09 03:28:45;;;;;;;6.50;4.60;;;;;;;10.20;63.79;96112.84;6233290;23;20161;-92
2022/04/09 03:31:16;;;;;;;13.20;5.97;;;;;;;10.61;63.62;96175.91;6197186;23;20261;-95
2022/04/09 03:33:47;;;;;;;6.23;4.43;;;;;;;10.20;63.24;96118.81;6220891;23;20168;-93
2022/04/09 03:36:19;;;;;;;8.00;4.50;;;;;;;9.98;64.50;96127.88;6198639;23;20206;-90
2022/04/09 03:38:47;;;;;;;6.93;4.93;;;;;;;10.13;65.02;96171.03;6219788;23;20170;-91
2022/04/09 03:41:17;;;;;;;7.40;4.60;;;;;;;10.09;64.49;96135.88;6218308;23;20161;-93
2022/04/09 03:43:57;;;;;;;7.23;4.37;;;;;;;10.53;63.79;96165.19;6194932;23;20241;-94
2022/04/09 03:46:30;;;;;;;7.23;5.10;;;;;;;10.32;63.41;96099.16;6212420;23;20188;-89
2022/04/09 03:49:02;;;;;;;8.73;4.37;;;;;;;10.86;62.18;96168.31;6224216;23;20176;-84
2022/04/09 03:51:31;;;;;;;4.83;4.27;;;;;;;10.57;62.78;96153.72;6215485;23;20193;-88
2022/04/09 03:54:00;;;;;;;6.87;5.07;;;;;;;10.36;63.77;96166.19;6245190;23;20165;-89
2022/04/09 03:56:29;;;;;;;9.27;5.30;;;;;;;10.04;64.83;96159.41;6246243;23;20161;-90
2022/04/09 03:58:58;;;;;;;7.87;4.33;;;;;;;9.75;65.51;96135.22;6243108;23;20191;-87
2022/04/09 04:01:27;;;;;;;8.23;4.97;;;;;;;9.85;65.68;96157.03;6219540;23;20609;-93
2022/04/09 04:03:57;;;;;;;8.43;5.30;;;;;;;9.87;66.01;96151.78;6219486;23;20181;-87
2022/04/09 04:06:26;;;;;;;9.13;5.40;;;;;;;9.73;65.56;96149.16;6244508;23;20165;-89
2022/04/09 04:08:56;;;;;;;8.77;5.40;;;;;;;9.58;66.03;96135.34;6213121;23;20181;-91
2022/04/09 04:11:24;;;;;;;6.27;5.33;;;;;;;9.92;66.64;96174.78;6214624;23;20197;-90
2022/04/09 04:13:52;;;;;;;7.90;6.00;;;;;;;10.23;64.99;96157.47;6233834;23;20162;-85
2022/04/09 04:16:21;;;;;;;9.33;6.43;;;;;;;10.16;64.43;96150.16;6221334;23;20189;-95
2022/04/09 04:18:52;;;;;;;7.27;5.00;;;;;;;9.91;65.56;96131.78;6220444;23;20272;-94
2022/04/09 04:21:20;;;;;;;7.33;5.23;;;;;;;9.92;65.89;96133.41;6224082;23;20630;-90
2022/04/09 04:23:58;;;;;;;7.60;5.20;;;;;;;10.31;65.32;96178.56;6234723;23;20561;-88
2022/04/09 04:26:26;;;;;;;6.77;5.03;;;;;;;10.51;64.43;96165.25;6238270;23;20185;-88
2022/04/09 04:29:00;;;;;;;13.60;7.30;;;;;;;11.09;63.12;96193.66;6222117;23;20181;-94
2022/04/09 04:31:29;;;;;;;11.67;6.03;;;;;;;11.48;61.67;96184.34;6222636;23;20193;-96
2022/04/09 04:33:58;;;;;;;5.93;5.33;;;;;;;11.90;60.09;96166.06;6219016;23;20167;-96
2022/04/09 04:36:30;;;;;;;7.57;6.03;;;;;;;12.35;58.61;96173.44;6194491;23;20176;-95
2022/04/09 04:38:57;;;;;;;9.10;5.80;;;;;;;12.57;57.88;96194.44;6217632;23;20166;-92
2022/04/09 04:41:24;;;;;;;6.60;4.77;;;;;;;12.61;58.13;96192.47;6218970;23;20159;-95
2022/04/09 04:43:52;;;;;;;10.63;5.67;;;;;;;12.44;57.64;96175.44;6195155;23;20191;-96
2022/04/09 04:46:27;;;;;;;7.87;5.57;;;;;;;12.28;57.98;96193.78;6222965;23;20214;-87
2022/04/09 04:48:55;;;;;;;13.03;5.80;;;;;;;11.80;59.98;96176.22;6243710;23;20175;-92
2022/04/09 04:51:25;;;;;;;13.30;5.40;;;;;;;11.19;61.23;96158.47;6211138;23;20197;-90
2022/04/09 04:53:54;;;;;;;14.33;7.50;;;;;;;11.19;62.35;96188.75;6270631;22;20171;-87
2022/04/09 04:56:24;;;;;;;9.67;6.50;;;;;;;10.71;62.92;96109.72;6223933;23;20164;-96
2022/04/09 04:58:55;;;;;;;11.80;5.93;;;;;;;10.80;63.31;96145.38;6221391;23;20249;-96
2022/04/09 05:01:22;;;;;;;12.77;5.70;;;;;;;11.27;63.05;96192.53;6248615;23;20256;-93
2022/04/09 05:03:58;;;;;;;6.70;4.80;;;;;;;11.55;62.72;96181.28;6231166;23;20161;-96
2022/04/09 05:06:32;;;;;;;13.63;5.13;;;;;;;12.21;60.71;96186.50;6210176;23;20169;-96
2022/04/09 05:09:02;;;;;;;8.40;4.40;;;;;;;12.49;59.41;96157.75;6247279;23;20164;-95
2022/04/09 05:11:37;;;;;;;8.20;5.50;;;;;;;12.95;59.12;96177.09;6223753;23;20199;-96
2022/04/09 05:14:11;;;;;;;10.20;5.87;;;;;;;12.95;58.59;96148.50;6217335;23;20175;-95
2022/04/09 05:16:57;;;;;;;9.23;6.57;;;;;;;13.36;56.83;96139.59;6219450;23;20166;-91
2022/04/09 05:19:26;;;;;;;7.13;5.17;;;;;;;13.78;55.40;96149.53;6195355;23;20669;-96
2022/04/09 05:22:02;;;;;;;8.23;5.20;;;;;;;14.05;54.95;96142.31;6196662;23;20194;-93
2022/04/09 05:24:33;;;;;;;8.93;4.77;;;;;;;14.35;53.86;96168.72;6221042;23;20517;-96
2022/04/09 05:27:00;;;;;;;6.67;5.17;;;;;;;14.17;54.47;96141.41;6204573;23;20169;-92
2022/04/09 05:29:34;;;;;;;9.57;5.20;;;;;;;14.15;54.53;96145.91;6218060;23;20162;-96
2022/04/09 05:32:02;;;;;;;7.23;5.53;;;;;;;14.07;54.32;96156.03;6217396;23;20334;-96
2022/04/09 05:34:31;;;;;;;8.43;5.00;;;;;;;14.14;54.69;96166.81;6222366;23;20199;-96
2022/04/09 05:36:58;;;;;;;12.93;5.53;;;;;;;14.04;54.71;96130.22;6217440;23;20166;-95
2022/04/09 05:39:29;;;;;;;11.27;6.57;;;;;;;13.75;55.17;96116.75;6219341;23;20164;-95
2022/04/09 05:41:57;;;;;;;7.73;5.33;;;;;;;14.05;54.47;96152.72;6227621;23;20175;-95
2022/04/09 05:44:25;;;;;;;10.57;6.00;;;;;;;14.24;54.77;96158.22;6197932;23;20175;-96
2022/04/09 05:46:52;;;;;;;7.13;5.70;;;;;;;13.75;55.03;96087.28;6242740;23;20199;-95
2022/04/09 05:49:20;;;;;;;9.97;5.87;;;;;;;14.22;55.12;96154.09;6220516;23;20193;-96
2022/04/09 05:51:48;;;;;;;10.40;5.97;;;;;;;14.14;55.63;96149.44;6220629;23;20212;-96
2022/04/09 05:54:18;;;;;;;9.30;6.67;;;;;;;14.06;55.58;96138.75;6198062;23;20206;-96
2022/04/09 05:56:50;;;;;;;8.83;6.60;;;;;;;14.24;55.12;96137.38;6221024;23;20172;-95
2022/04/09 05:59:19;;;;;;;10.43;7.10;;;;;;;14.63;54.52;96144.84;6221405;23;20180;-95
2022/04/09 06:01:50;;;;;;;12.07;6.23;;;;;;;14.89;54.58;96140.25;6196870;23;20248;-95
2022/04/09 06:04:20;;;;;;;12.23;6.90;;;;;;;14.98;54.22;96143.94;6198173;23;20189;-96
2022/04/09 06:06:55;;;;;;;8.10;6.67;;;;;;;14.86;54.72;96139.66;6201221;23;20244;-92
2022/04/09 06:09:25;;;;;;;8.93;5.70;;;;;;;14.82;55.79;96149.47;6221227;23;20161;-93
2022/04/09 06:12:05;;;;;;;9.23;5.43;;;;;;;15.12;54.31;96138.47;6219854;23;20192;-94
2022/04/09 06:14:56;;;;;;;9.77;4.93;;;;;;;14.70;54.68;96147.81;6221225;23;20220;-95
2022/04/09 06:17:31;;;;;;;7.83;5.70;;;;;;;14.66;54.11;96149.00;6193034;23;20172;-95
2022/04/09 06:19:58;;;;;;;7.27;5.53;;;;;;;14.61;54.07;96157.16;6217643;23;20211;-93
2022/04/09 06:22:27;;;;;;;10.13;5.43;;;;;;;14.63;54.22;96126.59;6173725;22;20232;-91
2022/04/09 06:25:01;;;;;;;8.97;4.97;;;;;;;14.67;53.86;96115.00;6222086;22;20187;-94
2022/04/09 06:27:28;;;;;;;7.87;4.70;;;;;;;14.87;52.43;96121.28;6243759;22;20172;-90
2022/04/09 06:29:57;;;;;;;5.97;4.73;;;;;;;14.96;52.31;96130.19;6244025;22;20161;-94
2022/04/09 06:32:25;;;;;;;5.53;4.93;;;;;;;15.47;51.53;96149.59;6243778;22;20188;-90
2022/04/09 06:34:53;;;;;;;7.33;4.10;;;;;;;15.64;50.24;96143.84;6230721;23;20176;-95
2022/04/09 06:37:24;;;;;;;6.33;4.37;;;;;;;15.72;50.52;96117.16;6231122;23;20165;-92
2022/04/09 06:39:55;;;;;;;11.40;6.60;;;;;;;15.85;49.68;96102.97;6221778;23;20265;-96
2022/04/09 06:42:34;;;;;;;11.73;6.77;;;;;;;16.55;48.80;96152.06;6219520;23;20184;-89
2022/04/09 06:45:21;;;;;;;5.00;3.87;;;;;;;16.45;48.28;96149.34;6255811;23;20166;-87
2022/04/09 06:48:13;;;;;;;6.90;4.10;;;;;;;16.09;49.12;96115.81;6227641;23;20165;-92
2022/04/09 06:50:52;;;;;;;12.77;7.70;;;;;;;16.39;48.76;96135.94;6227247;23;20176;-96
2022/04/09 06:53:23;;;;;;;13.70;5.33;;;;;;;16.47;48.44;96133.53;6233832;23;20195;-90
2022/04/09 06:55:50;;;;;;;7.70;3.93;;;;;;;16.56;48.33;96127.56;6243393;23;20233;-93
2022/04/09 06:58:18;;;;;;;10.10;4.60;;;;;;;16.48;48.52;96135.19;6211237;23;20592;-92
2022/04/09 07:00:49;;;;;;;8.67;4.13;;;;;;;16.49;48.64;96113.31;6238946;23;20163;-95
2022/04/09 07:03:19;;;;;;;6.47;3.67;;;;;;;16.84;48.25;96142.56;6224218;23;20244;-92
2022/04/09 07:05:47;;;;;;;4.73;4.23;;;;;;;16.94;48.27;96148.69;6253412;23;20162;-96
2022/04/09 07:08:17;;;;;;;4.03;3.60;;;;;;;16.64;47.70;96089.38;6252765;23;20239;-96
2022/04/09 07:10:48;;;;;;;6.60;4.23;;;;;;;16.86;47.96;96119.75;6255736;23;20224;-93
2022/04/09 07:13:15;;;;;;;5.63;3.33;;;;;;;16.94;48.40;96119.91;6219110;23;20194;-91
2022/04/09 07:15:46;;;;;;;5.30;4.10;;;;;;;17.26;47.86;96138.91;6241077;23;20300;-91
2022/04/09 07:18:15;;;;;;;5.37;3.83;;;;;;;17.46;47.38;96139.78;6268482;23;20151;-90
2022/04/09 07:20:44;;;;;;;6.90;4.00;;;;;;;17.43;47.24;96143.53;6266681;23;20195;-90
2022/04/09 07:23:14;;;;;;;4.43;3.27;;;;;;;17.24;46.64;96104.22;6227416;23;20173;-95
2022/04/09 07:25:44;;;;;;;4.87;3.00;;;;;;;17.67;46.18;96117.84;6253191;23;20249;-96
2022/04/09 07:28:13;;;;;;;3.97;3.57;;;;;;;17.79;46.27;96131.63;6228709;23;20222;-96
2022/04/09 07:30:43;;;;;;;5.50;4.03;;;;;;;17.91;46.18;96138.38;6258062;23;20151;-92
2022/04/09 07:33:11;;;;;;;9.13;3.93;;;;;;;18.09;45.92;96128.06;6255929;23;20225;-95
2022/04/09 07:35:39;;;;;;;6.10;3.80;;;;;;;17.89;45.42;96078.28;6227300;23;20216;-96
2022/04/09 07:38:09;;;;;;;7.13;4.40;;;;;;;18.39;45.07;96133.13;6230348;23;20173;-92
2022/04/09 07:40:37;;;;;;;6.87;3.80;;;;;;;18.27;44.12;96092.31;6183364;23;20581;-96
2022/04/09 07:43:07;;;;;;;7.80;4.10;;;;;;;18.38;44.60;96092.19;6260772;23;20172;-96
2022/04/09 07:45:34;;;;;;;5.07;4.10;;;;;;;18.46;44.75;96089.72;6242100;22;20214;-94
2022/04/09 07:48:01;;;;;;;5.97;3.60;;;;;;;18.50;44.72;96098.94;6242584;23;20176;-93
2022/04/09 07:50:29;;;;;;;6.57;3.83;;;;;;;18.68;44.29;96107.72;6268112;23;20215;-87
2022/04/09 07:52:57;;;;;;;6.60;3.60;;;;;;;18.80;44.32;96098.72;6238221;23;20652;-94
2022/04/09 07:55:25;;;;;;;6.67;3.60;;;;;;;18.93;44.17;96101.84;6255746;23;20685;-95
2022/04/09 07:57:55;;;;;;;6.87;4.37;;;;;;;19.02;44.12;96098.34;6225471;23;20176;-91
2022/04/09 08:00:23;;;;;;;5.07;3.77;;;;;;;19.19;43.46;96100.22;6231069;23;20176;-96
2022/04/09 08:02:53;;;;;;;4.23;3.83;;;;;;;19.38;43.57;96121.16;6209012;23;20176;-96
2022/04/09 08:05:22;;;;;;;5.80;3.40;;;;;;;19.48;42.23;96111.44;6240651;23;20163;-91
2022/04/09 08:07:50;;;;;;;9.23;3.00;;;;;;;19.55;41.61;96102.97;6232422;23;20693;-94
2022/04/09 08:10:19;;;;;;;10.53;5.00;;;;;;;19.53;42.01;96073.38;6254005;23;20514;-93
2022/04/09 08:12:49;;;;;;;10.73;4.20;;;;;;;19.87;41.96;96095.38;6252439;23;20208;-96
2022/04/09 08:15:18;;;;;;;9.33;4.10;;;;;;;20.13;40.81;96098.94;6229024;23;20173;-95
2022/04/09 08:17:48;;;;;;;7.33;3.33;;;;;;;20.03;40.03;96056.13;6251741;23;20169;-95
2022/04/09 08:20:21;;;;;;;2.50;2.00;;;;;;;19.82;39.10;96066.13;6252558;23;20201;-94
2022/04/09 08:22:50;;;;;;;3.93;2.33;;;;;;;19.92;39.81;96087.91;6226965;23;20562;-96
2022/04/09 08:25:18;;;;;;;9.20;2.60;;;;;;;19.99;39.53;96074.00;6253004;23;20164;-96
2022/04/09 08:27:51;;;;;;;3.80;2.60;;;;;;;19.66;40.22;96044.97;6252838;23;20172;-89
2022/04/09 08:30:19;;;;;;;8.90;2.80;;;;;;;19.99;39.88;96073.19;6251936;23;20264;-96
2022/04/09 08:32:49;;;;;;;9.60;4.00;;;;;;;20.23;39.83;96078.69;6254633;23;20200;-93
2022/04/09 08:35:17;;;;;;;6.20;3.70;;;;;;;20.49;39.13;96076.88;6177822;23;20169;-94
2022/04/09 08:37:56;;;;;;;5.93;2.80;;;;;;;20.38;39.05;96069.22;6230989;23;20219;-92
2022/04/09 08:40:32;;;;;;;7.17;2.87;;;;;;;20.58;38.83;96064.63;6254093;23;20260;-92
2022/04/09 08:43:02;;;;;;;5.20;2.40;;;;;;;20.80;38.21;96064.09;6256582;23;20173;-96
2022/04/09 08:45:41;;;;;;;4.40;2.03;;;;;;;20.76;38.04;96066.22;6256468;23;20181;-85
2022/04/09 08:48:11;;;;;;;5.03;2.07;;;;;;;20.75;38.18;96067.19;6264279;23;20165;-96
2022/04/09 08:50:43;;;;;;;4.60;2.63;;;;;;;20.78;38.19;96027.41;6257043;23;21052;-94
2022/04/09 08:53:13;;;;;;;6.03;3.03;;;;;;;20.90;38.20;96055.09;6200228;23;20212;-95
2022/04/09 08:55:40;;;;;;;4.23;2.23;;;;;;;21.08;37.93;96059.50;6252431;23;20184;-95
2022/04/09 08:58:08;;;;;;;3.53;2.17;;;;;;;21.26;37.65;96065.47;6228582;23;20178;-92
2022/04/09 09:00:36;;;;;;;3.30;1.80;;;;;;;20.97;37.74;96036.88;6225695;23;20178;-92
2022/04/09 09:03:04;;;;;;;3.83;1.90;;;;;;;20.84;38.05;96034.66;6252045;23;20240;-88
2022/04/09 09:05:39;;;;;;;4.07;2.70;;;;;;;20.95;38.43;96042.31;6253882;23;20601;-95
2022/04/09 09:08:10;;;;;;;5.13;2.30;;;;;;;21.23;37.64;96039.44;6229955;23;20277;-89
2022/04/09 09:11:20;;;;;;;2.73;2.07;;;;;;;20.94;37.35;96026.63;6250494;23;20174;-93
2022/04/09 09:14:44;;;;;;;5.53;2.33;;;;;;;20.84;38.05;96034.66;6261105;23;20201;-88
2022/04/09 09:18:11;;;;;;;5.50;2.13;;;;;;;20.86;38.08;96034.50;6244169;23;20225;-87
2022/04/09 09:21:35;;;;;;;3.00;1.73;;;;;;;21.14;39.16;96032.53;6269092;22;20195;-86
2022/04/09 09:24:59;;;;;;;3.90;2.03;;;;;;;21.18;37.26;96021.53;6267046;23;20216;-87
2022/04/09 09:28:20;;;;;;;3.67;2.13;;;;;;;21.39;37.20;96023.72;6269960;22;20156;-86
2022/04/09 09:31:41;;;;;;;4.60;2.70;;;;;;;21.25;37.64;96025.16;6269504;23;20193;-85
2022/04/09 09:35:02;;;;;;;5.40;2.40;;;;;;;20.90;38.17;96023.50;6242792;23;20203;-86
2022/04/09 09:38:40;;;;;;;3.47;2.30;;;;;;;21.13;37.56;96001.91;6270608;22;20174;-87
2022/04/09 09:42:16;;;;;;;3.00;2.47;;;;;;;20.97;38.13;96011.38;6244905;23;20175;-92
2022/04/09 09:45:38;;;;;;;4.73;2.50;;;;;;;21.27;37.28;96003.94;6271372;22;20166;-87
2022/04/09 09:48:49;;;;;;;8.20;2.57;;;;;;;21.59;37.08;96004.81;6269862;22;20165;-84
2022/04/09 09:52:28;;;;;;;4.73;2.60;;;;;;;21.71;37.13;96005.31;6244524;23;20215;-86
2022/04/09 09:55:50;;;;;;;4.93;2.60;;;;;;;21.52;37.98;96008.25;6245585;22;20212;-86
2022/04/09 09:59:21;;;;;;;3.70;2.67;;;;;;;21.34;39.04;95997.84;6242956;22;20189;-86
2022/04/09 10:02:44;;;;;;;4.80;2.50;;;;;;;21.67;38.89;95985.56;6243071;22;20161;-87
2022/04/09 10:06:04;;;;;;;2.97;2.07;;;;;;;21.70;38.53;95979.97;6220533;23;20184;-86
2022/04/09 10:09:27;;;;;;;3.97;2.30;;;;;;;21.34;37.80;95915.38;6242901;22;20241;-86
2022/04/09 10:12:48;;;;;;;3.20;2.00;;;;;;;21.75;38.34;95982.91;6247028;22;20154;-86
2022/04/09 10:16:12;;;;;;;4.30;2.43;;;;;;;21.73;38.59;95976.97;6270685;22;20169;-86
2022/04/09 10:19:35;;;;;;;4.33;2.00;;;;;;;21.35;39.43;95980.25;6270469;22;20222;-88
2022/04/09 10:23:09;;;;;;;5.10;2.63;;;;;;;21.51;39.51;95972.38;6245056;23;20236;-88
2022/04/09 10:26:30;;;;;;;5.00;2.30;;;;;;;21.69;38.98;95970.41;6270989;23;20155;-86
2022/04/09 10:30:07;;;;;;;3.33;2.40;;;;;;;21.70;39.13;95979.97;6270512;22;20162;-86
2022/04/09 10:33:29;;;;;;;3.70;2.80;;;;;;;21.75;39.49;95965.28;6216979;23;20241;-87
2022/04/09 10:36:45;;;;;;;4.53;2.53;;;;;;;21.75;40.15;95953.91;6271368;22;20151;-86
2022/04/09 10:40:23;;;;;;;3.17;1.93;;;;;;;21.86;39.76;95953.63;6242302;23;20170;-94
2022/04/09 10:43:27;;;;;;;4.70;2.13;;;;;;;22.06;38.77;95941.75;6237462;23;20171;-94
2022/04/09 10:46:53;;;;;;;7.37;3.07;;;;;;;22.10;38.99;95939.59;6264409;23;20152;-91
2022/04/09 10:50:02;;;;;;;2.10;1.77;;;;;;;22.03;37.88;95946.53;6203393;23;20168;-94
2022/04/09 10:53:23;;;;;;;4.80;2.20;;;;;;;22.20;37.71;95927.03;6205196;23;20214;-88
2022/04/09 10:56:41;;;;;;;3.30;1.73;;;;;;;22.35;37.38;95938.53;6203318;23;20177;-86
2022/04/09 10:59:21;;;;;;;5.17;2.17;;;;;;;22.49;37.45;95936.03;6152200;23;20234;-96
2022/04/09 11:02:42;;;;;;;3.73;1.93;;;;;;;22.25;37.15;95928.19;6184800;23;20172;-94
2022/04/09 11:06:03;;;;;;;5.47;2.60;;;;;;;22.77;36.12;95917.16;6161053;23;20208;-96
2022/04/09 11:09:25;;;;;;;4.63;2.30;;;;;;;22.63;37.10;95916.88;6180513;23;20252;-95
2022/04/09 11:12:47;;;;;;;2.57;1.73;;;;;;;23.11;34.91;95923.72;6186163;23;20266;-95
2022/04/09 11:16:09;;;;;;;2.10;1.80;;;;;;;23.01;35.22;95917.03;6185334;23;20174;-94
2022/04/09 11:19:35;;;;;;;3.80;2.20;;;;;;;22.71;35.25;95910.72;6154018;23;20171;-93
2022/04/09 11:22:58;;;;;;;4.00;2.03;;;;;;;22.95;34.82;95905.34;6243771;23;20173;-94
2022/04/09 11:26:22;;;;;;;5.20;2.20;;;;;;;23.21;35.11;95915.56;6256818;23;20291;-96
2022/04/09 11:29:55;;;;;;;4.37;1.80;;;;;;;23.30;34.56;95907.44;6228037;23;20176;-93
2022/04/09 11:33:15;;;;;;;3.73;2.43;;;;;;;23.53;33.85;95885.50;6262150;23;20200;-94
2022/04/09 11:36:37;;;;;;;2.33;1.90;;;;;;;23.32;33.38;95871.13;6226211;23;20220;-93
2022/04/09 11:40:02;;;;;;;4.37;1.70;;;;;;;23.75;33.78;95888.09;6244571;23;20177;-93
2022/04/09 11:43:24;;;;;;;2.47;1.60;;;;;;;23.90;33.72;95873.09;6242859;23;20268;-91
2022/04/09 11:46:46;;;;;;;3.47;1.97;;;;;;;23.47;33.48;95871.19;6219240;23;20215;-91
2022/04/09 11:50:13;;;;;;;2.67;1.53;;;;;;;23.37;33.60;95857.34;6220887;23;20518;-93
2022/04/09 11:53:34;;;;;;;2.60;1.53;;;;;;;23.36;33.66;95856.56;6263988;23;20198;-91
2022/04/09 11:56:54;;;;;;;3.77;1.80;;;;;;;23.33;33.81;95856.06;6243508;23;20188;-95
2022/04/09 12:00:15;;;;;;;4.30;1.27;;;;;;;23.37;34.76;95846.78;6241547;23;20234;-93
2022/04/09 12:03:43;;;;;;;3.53;1.77;;;;;;;23.85;32.09;95845.53;6242788;23;20241;-90
2022/04/09 12:07:04;;;;;;;4.93;1.60;;;;;;;24.09;31.38;95835.53;6215038;23;20172;-94
2022/04/09 12:10:26;;;;;;;3.10;1.77;;;;;;;23.69;32.54;95796.28;6243079;23;20229;-93
2022/04/09 12:13:55;;;;;;;2.17;1.40;;;;;;;23.94;31.08;95821.47;6241190;23;20245;-93
2022/04/09 12:16:38;;;;;;;3.00;1.50;;;;;;;23.84;32.24;95828.03;6240796;23;20668;-94
2022/04/09 12:19:07;;;;;;;2.47;1.60;;;;;;;24.00;31.87;95788.19;6244119;23;20219;-91
2022/04/09 12:21:35;;;;;;;1.93;1.30;;;;;;;24.40;31.24;95813.38;6242709;23;20175;-91
2022/04/09 12:24:07;;;;;;;2.93;1.70;;;;;;;24.30;30.89;95818.94;6204870;23;20171;-89
2022/04/09 12:26:40;;;;;;;2.60;1.50;;;;;;;24.33;31.64;95812.47;6256129;23;20170;-89
2022/04/09 12:29:16;;;;;;;4.43;1.67;;;;;;;24.43;31.38;95802.41;6250457;23;20194;-94
2022/04/09 12:31:48;;;;;;;2.33;1.47;;;;;;;24.55;31.15;95816.78;6220403;23;20175;-89
2022/04/09 12:34:17;;;;;;;3.33;1.40;;;;;;;24.55;30.88;95809.69;6244010;23;20192;-93
2022/04/09 12:36:58;;;;;;;2.00;1.30;;;;;;;24.79;27.74;95796.13;6216445;23;20641;-91